sensor_id;sensor_type;location;lat;lon;timestamp;P1;durP1;ratioP1;P2;durP2;ratioP2
16426;SDS011;8322;-33.900;151.170;2023-06-14T00:02:20;1.02;;;0.75;;
16426;SDS011;8322;-33.900;151.170;2023-06-14T00:04:50;2.97;;;1.00;;
16426;SDS011;8322;-33.900;151.170;2023-06-14T00:07:22;4.63;;;1.80;;
16426;SDS011;8322;-33.900;151.170;2023-06-14T00:10:02;1.52;;;1.42;;
16426;SDS011;8322;-33.900;151.170;2023-06-14T00:12:32;1.25;;;1.02;;
16426;SDS011;8322;-33.900;151.170;2023-06-14T00:15:02;3.00;;;1.10;;
16426;SDS011;8322;-33.900;151.170;2023-06-14T00:17:31;1.42;;;1.10;;
16426;SDS011;8322;-33.900;151.170;2023-06-14T00:20:02;1.90;;;1.00;;
16426;SDS011;8322;-33.900;151.170;2023-06-14T00:22:35;3.35;;;1.30;;
16426;SDS011;8322;-33.900;151.170;2023-06-14T00:25:05;2.35;;;1.25;;
16426;SDS011;8322;-33.900;151.170;2023-06-14T00:27:35;3.10;;;1.15;;
16426;SDS011;8322;-33.900;151.170;2023-06-14T00:30:04;4.55;;;1.23;;
16426;SDS011;8322;-33.900;151.170;2023-06-14T00:32:34;3.65;;;1.45;;
16426;SDS011;8322;-33.900;151.170;2023-06-14T00:35:03;3.30;;;1.17;;
16426;SDS011;8322;-33.900;151.170;2023-06-14T00:37:35;1.80;;;1.17;;
16426;SDS011;8322;-33.900;151.170;2023-06-14T00:40:05;3.33;;;1.45;;
16426;SDS011;8322;-33.900;151.170;2023-06-14T00:42:35;1.35;;;0.80;;
16426;SDS011;8322;-33.900;151.170;2023-06-14T00:45:05;3.72;;;1.00;;
16426;SDS011;8322;-33.900;151.170;2023-06-14T00:47:34;3.83;;;0.90;;
16426;SDS011;8322;-33.900;151.170;2023-06-14T00:50:06;3.55;;;0.95;;
16426;SDS011;8322;-33.900;151.170;2023-06-14T00:52:38;2.47;;;1.30;;
16426;SDS011;8322;-33.900;151.170;2023-06-14T00:55:08;4.85;;;1.85;;
16426;SDS011;8322;-33.900;151.170;2023-06-14T00:57:38;9.15;;;1.10;;
16426;SDS011;8322;-33.900;151.170;2023-06-14T01:00:08;1.00;;;0.73;;
16426;SDS011;8322;-33.900;151.170;2023-06-14T01:02:39;4.82;;;1.17;;
16426;SDS011;8322;-33.900;151.170;2023-06-14T01:05:08;1.45;;;0.70;;
16426;SDS011;8322;-33.900;151.170;2023-06-14T01:07:46;2.03;;;1.00;;
16426;SDS011;8322;-33.900;151.170;2023-06-14T01:10:21;2.75;;;1.10;;
16426;SDS011;8322;-33.900;151.170;2023-06-14T01:12:55;1.88;;;1.00;;
16426;SDS011;8322;-33.900;151.170;2023-06-14T01:15:27;0.98;;;0.63;;
16426;SDS011;8322;-33.900;151.170;2023-06-14T01:17:59;2.00;;;1.15;;
16426;SDS011;8322;-33.900;151.170;2023-06-14T01:20:31;2.30;;;1.02;;
16426;SDS011;8322;-33.900;151.170;2023-06-14T01:23:04;2.30;;;1.27;;
16426;SDS011;8322;-33.900;151.170;2023-06-14T01:25:33;2.33;;;0.85;;
16426;SDS011;8322;-33.900;151.170;2023-06-14T01:28:05;1.55;;;0.93;;
16426;SDS011;8322;-33.900;151.170;2023-06-14T01:30:37;3.40;;;1.23;;
16426;SDS011;8322;-33.900;151.170;2023-06-14T01:33:08;2.90;;;0.75;;
16426;SDS011;8322;-33.900;151.170;2023-06-14T01:35:38;4.18;;;1.10;;
16426;SDS011;8322;-33.900;151.170;2023-06-14T01:38:09;2.65;;;0.98;;
16426;SDS011;8322;-33.900;151.170;2023-06-14T01:40:39;1.88;;;1.20;;
16426;SDS011;8322;-33.900;151.170;2023-06-14T01:43:08;2.17;;;0.80;;
16426;SDS011;8322;-33.900;151.170;2023-06-14T01:45:38;3.92;;;1.13;;
16426;SDS011;8322;-33.900;151.170;2023-06-14T01:48:09;2.35;;;1.38;;
16426;SDS011;8322;-33.900;151.170;2023-06-14T01:50:40;2.75;;;1.00;;
16426;SDS011;8322;-33.900;151.170;2023-06-14T01:53:11;1.52;;;0.80;;
16426;SDS011;8322;-33.900;151.170;2023-06-14T01:55:41;2.25;;;0.95;;
16426;SDS011;8322;-33.900;151.170;2023-06-14T01:58:14;2.78;;;0.80;;
16426;SDS011;8322;-33.900;151.170;2023-06-14T02:00:44;1.42;;;0.70;;
16426;SDS011;8322;-33.900;151.170;2023-06-14T02:03:13;1.63;;;0.68;;
16426;SDS011;8322;-33.900;151.170;2023-06-14T02:05:45;1.23;;;0.50;;
16426;SDS011;8322;-33.900;151.170;2023-06-14T02:08:16;1.30;;;0.93;;
16426;SDS011;8322;-33.900;151.170;2023-06-14T02:10:46;3.33;;;0.75;;
16426;SDS011;8322;-33.900;151.170;2023-06-14T02:13:15;2.33;;;0.88;;
16426;SDS011;8322;-33.900;151.170;2023-06-14T02:15:44;1.67;;;0.70;;
16426;SDS011;8322;-33.900;151.170;2023-06-14T02:18:17;1.67;;;0.68;;
16426;SDS011;8322;-33.900;151.170;2023-06-14T02:20:46;1.17;;;0.50;;
16426;SDS011;8322;-33.900;151.170;2023-06-14T02:23:17;1.35;;;0.75;;
16426;SDS011;8322;-33.900;151.170;2023-06-14T02:25:47;1.70;;;0.77;;
16426;SDS011;8322;-33.900;151.170;2023-06-14T02:28:16;3.10;;;1.40;;
16426;SDS011;8322;-33.900;151.170;2023-06-14T02:30:46;1.52;;;1.00;;
16426;SDS011;8322;-33.900;151.170;2023-06-14T02:33:15;2.42;;;0.85;;
16426;SDS011;8322;-33.900;151.170;2023-06-14T02:35:46;2.97;;;0.70;;
16426;SDS011;8322;-33.900;151.170;2023-06-14T02:38:17;1.83;;;0.77;;
16426;SDS011;8322;-33.900;151.170;2023-06-14T02:40:47;3.95;;;0.82;;
16426;SDS011;8322;-33.900;151.170;2023-06-14T02:43:16;1.40;;;0.80;;
16426;SDS011;8322;-33.900;151.170;2023-06-14T02:45:46;2.63;;;0.85;;
16426;SDS011;8322;-33.900;151.170;2023-06-14T02:48:15;1.90;;;1.02;;
16426;SDS011;8322;-33.900;151.170;2023-06-14T02:50:45;6.28;;;1.00;;
16426;SDS011;8322;-33.900;151.170;2023-06-14T02:53:14;5.03;;;0.90;;
16426;SDS011;8322;-33.900;151.170;2023-06-14T02:55:46;3.35;;;0.82;;
16426;SDS011;8322;-33.900;151.170;2023-06-14T02:58:15;1.67;;;0.70;;
16426;SDS011;8322;-33.900;151.170;2023-06-14T03:00:45;2.28;;;0.80;;
16426;SDS011;8322;-33.900;151.170;2023-06-14T03:03:14;1.05;;;0.50;;
16426;SDS011;8322;-33.900;151.170;2023-06-14T03:05:44;0.93;;;0.70;;
16426;SDS011;8322;-33.900;151.170;2023-06-14T03:08:15;1.85;;;0.90;;
16426;SDS011;8322;-33.900;151.170;2023-06-14T03:10:48;2.63;;;0.73;;
16426;SDS011;8322;-33.900;151.170;2023-06-14T03:13:17;1.63;;;0.70;;
16426;SDS011;8322;-33.900;151.170;2023-06-14T03:15:48;2.10;;;0.80;;
16426;SDS011;8322;-33.900;151.170;2023-06-14T03:18:18;2.42;;;0.60;;
16426;SDS011;8322;-33.900;151.170;2023-06-14T03:20:48;1.45;;;0.60;;
16426;SDS011;8322;-33.900;151.170;2023-06-14T03:23:18;1.83;;;0.50;;
16426;SDS011;8322;-33.900;151.170;2023-06-14T03:25:49;1.58;;;0.65;;
16426;SDS011;8322;-33.900;151.170;2023-06-14T03:28:18;3.90;;;0.70;;
16426;SDS011;8322;-33.900;151.170;2023-06-14T03:30:48;4.95;;;2.25;;
16426;SDS011;8322;-33.900;151.170;2023-06-14T03:33:17;2.38;;;1.00;;
16426;SDS011;8322;-33.900;151.170;2023-06-14T03:35:47;3.55;;;0.95;;
16426;SDS011;8322;-33.900;151.170;2023-06-14T03:38:16;2.38;;;0.93;;
16426;SDS011;8322;-33.900;151.170;2023-06-14T03:40:46;3.13;;;1.00;;
16426;SDS011;8322;-33.900;151.170;2023-06-14T03:43:17;1.60;;;0.88;;
16426;SDS011;8322;-33.900;151.170;2023-06-14T03:45:46;3.45;;;1.00;;
16426;SDS011;8322;-33.900;151.170;2023-06-14T03:48:16;2.20;;;0.85;;
16426;SDS011;8322;-33.900;151.170;2023-06-14T03:50:46;3.90;;;1.05;;
16426;SDS011;8322;-33.900;151.170;2023-06-14T03:53:16;5.50;;;1.05;;
16426;SDS011;8322;-33.900;151.170;2023-06-14T03:55:46;1.92;;;0.70;;
16426;SDS011;8322;-33.900;151.170;2023-06-14T03:58:17;2.72;;;1.35;;
16426;SDS011;8322;-33.900;151.170;2023-06-14T04:00:47;1.30;;;0.90;;
16426;SDS011;8322;-33.900;151.170;2023-06-14T04:03:16;2.72;;;0.88;;
16426;SDS011;8322;-33.900;151.170;2023-06-14T04:05:47;3.63;;;2.95;;
16426;SDS011;8322;-33.900;151.170;2023-06-14T04:08:17;2.50;;;1.23;;
16426;SDS011;8322;-33.900;151.170;2023-06-14T04:10:48;1.75;;;0.82;;
16426;SDS011;8322;-33.900;151.170;2023-06-14T04:13:19;3.20;;;1.20;;
16426;SDS011;8322;-33.900;151.170;2023-06-14T04:15:48;4.53;;;0.90;;
16426;SDS011;8322;-33.900;151.170;2023-06-14T04:18:18;2.03;;;0.60;;
16426;SDS011;8322;-33.900;151.170;2023-06-14T04:20:47;2.00;;;0.60;;
16426;SDS011;8322;-33.900;151.170;2023-06-14T04:23:17;1.48;;;0.60;;
16426;SDS011;8322;-33.900;151.170;2023-06-14T04:25:47;2.70;;;0.90;;
16426;SDS011;8322;-33.900;151.170;2023-06-14T04:28:18;1.63;;;0.77;;
16426;SDS011;8322;-33.900;151.170;2023-06-14T04:30:52;2.03;;;0.88;;
16426;SDS011;8322;-33.900;151.170;2023-06-14T04:33:22;2.63;;;0.90;;
16426;SDS011;8322;-33.900;151.170;2023-06-14T04:35:52;1.52;;;1.30;;
16426;SDS011;8322;-33.900;151.170;2023-06-14T04:38:22;1.38;;;0.60;;
16426;SDS011;8322;-33.900;151.170;2023-06-14T04:40:54;3.28;;;0.90;;
16426;SDS011;8322;-33.900;151.170;2023-06-14T04:43:29;2.33;;;0.65;;
16426;SDS011;8322;-33.900;151.170;2023-06-14T04:46:04;4.82;;;0.80;;
16426;SDS011;8322;-33.900;151.170;2023-06-14T04:48:35;2.58;;;0.85;;
16426;SDS011;8322;-33.900;151.170;2023-06-14T04:51:07;1.95;;;0.80;;
16426;SDS011;8322;-33.900;151.170;2023-06-14T04:53:36;1.60;;;0.80;;
16426;SDS011;8322;-33.900;151.170;2023-06-14T04:56:08;2.50;;;0.73;;
16426;SDS011;8322;-33.900;151.170;2023-06-14T04:58:39;1.80;;;0.73;;
16426;SDS011;8322;-33.900;151.170;2023-06-14T05:01:09;2.60;;;0.68;;
16426;SDS011;8322;-33.900;151.170;2023-06-14T05:03:39;1.13;;;0.50;;
16426;SDS011;8322;-33.900;151.170;2023-06-14T05:06:11;1.05;;;0.63;;
16426;SDS011;8322;-33.900;151.170;2023-06-14T05:08:40;2.30;;;0.73;;
16426;SDS011;8322;-33.900;151.170;2023-06-14T05:11:10;1.77;;;0.75;;
16426;SDS011;8322;-33.900;151.170;2023-06-14T05:13:41;3.00;;;1.10;;
16426;SDS011;8322;-33.900;151.170;2023-06-14T05:16:11;2.58;;;0.60;;
16426;SDS011;8322;-33.900;151.170;2023-06-14T05:18:41;1.00;;;0.60;;
16426;SDS011;8322;-33.900;151.170;2023-06-14T05:21:11;1.30;;;0.90;;
16426;SDS011;8322;-33.900;151.170;2023-06-14T05:23:43;2.13;;;1.20;;
16426;SDS011;8322;-33.900;151.170;2023-06-14T05:26:12;9.13;;;1.10;;
16426;SDS011;8322;-33.900;151.170;2023-06-14T05:28:44;1.73;;;0.60;;
16426;SDS011;8322;-33.900;151.170;2023-06-14T05:31:13;2.00;;;1.00;;
16426;SDS011;8322;-33.900;151.170;2023-06-14T05:33:43;1.80;;;0.70;;
16426;SDS011;8322;-33.900;151.170;2023-06-14T05:36:14;3.60;;;0.70;;
16426;SDS011;8322;-33.900;151.170;2023-06-14T05:38:44;1.85;;;0.60;;
16426;SDS011;8322;-33.900;151.170;2023-06-14T05:41:14;2.60;;;0.80;;
16426;SDS011;8322;-33.900;151.170;2023-06-14T05:43:45;1.60;;;0.55;;
16426;SDS011;8322;-33.900;151.170;2023-06-14T05:46:15;2.08;;;0.73;;
16426;SDS011;8322;-33.900;151.170;2023-06-14T05:48:48;1.48;;;1.02;;
16426;SDS011;8322;-33.900;151.170;2023-06-14T05:51:17;3.70;;;0.98;;
16426;SDS011;8322;-33.900;151.170;2023-06-14T05:53:47;1.23;;;0.80;;
16426;SDS011;8322;-33.900;151.170;2023-06-14T05:56:17;2.58;;;0.80;;
16426;SDS011;8322;-33.900;151.170;2023-06-14T05:58:48;2.55;;;1.00;;
16426;SDS011;8322;-33.900;151.170;2023-06-14T06:01:18;1.25;;;0.70;;
16426;SDS011;8322;-33.900;151.170;2023-06-14T06:03:47;1.10;;;0.63;;
16426;SDS011;8322;-33.900;151.170;2023-06-14T06:06:17;4.38;;;1.08;;
16426;SDS011;8322;-33.900;151.170;2023-06-14T06:08:46;3.30;;;1.40;;
16426;SDS011;8322;-33.900;151.170;2023-06-14T06:11:16;2.47;;;0.70;;
16426;SDS011;8322;-33.900;151.170;2023-06-14T06:13:46;2.60;;;0.90;;
16426;SDS011;8322;-33.900;151.170;2023-06-14T06:16:17;2.08;;;0.80;;
16426;SDS011;8322;-33.900;151.170;2023-06-14T06:18:46;1.80;;;0.75;;
16426;SDS011;8322;-33.900;151.170;2023-06-14T06:21:16;2.42;;;0.82;;
16426;SDS011;8322;-33.900;151.170;2023-06-14T06:23:45;6.00;;;1.05;;
16426;SDS011;8322;-33.900;151.170;2023-06-14T06:26:15;6.55;;;1.20;;
16426;SDS011;8322;-33.900;151.170;2023-06-14T06:28:44;1.88;;;0.73;;
16426;SDS011;8322;-33.900;151.170;2023-06-14T06:31:14;2.72;;;1.00;;
16426;SDS011;8322;-33.900;151.170;2023-06-14T06:33:45;1.83;;;0.73;;
16426;SDS011;8322;-33.900;151.170;2023-06-14T06:36:14;3.17;;;1.10;;
16426;SDS011;8322;-33.900;151.170;2023-06-14T06:38:44;1.50;;;0.80;;
16426;SDS011;8322;-33.900;151.170;2023-06-14T06:41:13;2.63;;;0.85;;
16426;SDS011;8322;-33.900;151.170;2023-06-14T06:43:43;2.97;;;1.17;;
16426;SDS011;8322;-33.900;151.170;2023-06-14T06:46:12;4.68;;;1.25;;
16426;SDS011;8322;-33.900;151.170;2023-06-14T06:48:42;1.67;;;0.93;;
16426;SDS011;8322;-33.900;151.170;2023-06-14T06:51:13;4.88;;;2.17;;
16426;SDS011;8322;-33.900;151.170;2023-06-14T06:53:43;2.45;;;1.27;;
16426;SDS011;8322;-33.900;151.170;2023-06-14T06:56:12;3.08;;;1.05;;
16426;SDS011;8322;-33.900;151.170;2023-06-14T06:58:42;11.07;;;1.38;;
16426;SDS011;8322;-33.900;151.170;2023-06-14T07:01:11;3.35;;;0.82;;
16426;SDS011;8322;-33.900;151.170;2023-06-14T07:03:41;4.65;;;1.15;;
16426;SDS011;8322;-33.900;151.170;2023-06-14T07:06:11;3.00;;;1.00;;
16426;SDS011;8322;-33.900;151.170;2023-06-14T07:08:42;3.00;;;1.90;;
16426;SDS011;8322;-33.900;151.170;2023-06-14T07:11:12;2.75;;;0.90;;
16426;SDS011;8322;-33.900;151.170;2023-06-14T07:13:41;1.92;;;1.10;;
16426;SDS011;8322;-33.900;151.170;2023-06-14T07:16:11;2.67;;;1.10;;
16426;SDS011;8322;-33.900;151.170;2023-06-14T07:18:41;2.60;;;1.20;;
16426;SDS011;8322;-33.900;151.170;2023-06-14T07:21:10;2.28;;;1.08;;
16426;SDS011;8322;-33.900;151.170;2023-06-14T07:23:40;1.92;;;0.95;;
16426;SDS011;8322;-33.900;151.170;2023-06-14T07:26:11;2.97;;;1.00;;
16426;SDS011;8322;-33.900;151.170;2023-06-14T07:28:40;1.27;;;0.90;;
16426;SDS011;8322;-33.900;151.170;2023-06-14T07:31:11;3.72;;;1.73;;
16426;SDS011;8322;-33.900;151.170;2023-06-14T07:33:41;4.68;;;1.70;;
16426;SDS011;8322;-33.900;151.170;2023-06-14T07:36:10;3.00;;;1.92;;
16426;SDS011;8322;-33.900;151.170;2023-06-14T07:38:40;4.30;;;1.45;;
16426;SDS011;8322;-33.900;151.170;2023-06-14T07:41:11;2.38;;;1.42;;
16426;SDS011;8322;-33.900;151.170;2023-06-14T07:43:41;2.42;;;0.95;;
16426;SDS011;8322;-33.900;151.170;2023-06-14T07:46:10;3.67;;;1.90;;
16426;SDS011;8322;-33.900;151.170;2023-06-14T07:48:40;4.45;;;1.48;;
16426;SDS011;8322;-33.900;151.170;2023-06-14T07:51:09;3.45;;;1.88;;
16426;SDS011;8322;-33.900;151.170;2023-06-14T07:53:39;3.58;;;1.60;;
16426;SDS011;8322;-33.900;151.170;2023-06-14T07:56:09;3.65;;;1.52;;
16426;SDS011;8322;-33.900;151.170;2023-06-14T07:58:40;5.45;;;2.90;;
16426;SDS011;8322;-33.900;151.170;2023-06-14T08:01:10;6.18;;;3.05;;
16426;SDS011;8322;-33.900;151.170;2023-06-14T08:03:42;4.75;;;2.67;;
16426;SDS011;8322;-33.900;151.170;2023-06-14T08:06:12;13.32;;;6.90;;
16426;SDS011;8322;-33.900;151.170;2023-06-14T08:08:42;9.98;;;5.32;;
16426;SDS011;8322;-33.900;151.170;2023-06-14T08:11:11;5.82;;;3.10;;
16426;SDS011;8322;-33.900;151.170;2023-06-14T08:13:43;3.92;;;1.55;;
16426;SDS011;8322;-33.900;151.170;2023-06-14T08:16:12;5.68;;;1.42;;
16426;SDS011;8322;-33.900;151.170;2023-06-14T08:18:41;4.00;;;1.60;;
16426;SDS011;8322;-33.900;151.170;2023-06-14T08:21:11;3.58;;;1.95;;
16426;SDS011;8322;-33.900;151.170;2023-06-14T08:23:41;3.00;;;1.50;;
16426;SDS011;8322;-33.900;151.170;2023-06-14T08:26:11;2.90;;;1.65;;
16426;SDS011;8322;-33.900;151.170;2023-06-14T08:28:42;4.93;;;1.73;;
16426;SDS011;8322;-33.900;151.170;2023-06-14T08:31:12;2.30;;;1.50;;
16426;SDS011;8322;-33.900;151.170;2023-06-14T08:33:41;3.30;;;1.50;;
16426;SDS011;8322;-33.900;151.170;2023-06-14T08:36:11;2.60;;;1.63;;
16426;SDS011;8322;-33.900;151.170;2023-06-14T08:38:41;2.95;;;1.30;;
16426;SDS011;8322;-33.900;151.170;2023-06-14T08:41:11;5.55;;;1.85;;
16426;SDS011;8322;-33.900;151.170;2023-06-14T08:43:43;4.10;;;1.67;;
16426;SDS011;8322;-33.900;151.170;2023-06-14T08:46:12;2.45;;;1.48;;
16426;SDS011;8322;-33.900;151.170;2023-06-14T08:48:44;3.25;;;1.50;;
16426;SDS011;8322;-33.900;151.170;2023-06-14T08:51:14;4.40;;;1.90;;
16426;SDS011;8322;-33.900;151.170;2023-06-14T08:53:46;3.70;;;2.05;;
16426;SDS011;8322;-33.900;151.170;2023-06-14T08:56:16;4.03;;;1.80;;
16426;SDS011;8322;-33.900;151.170;2023-06-14T08:58:48;4.30;;;2.10;;
16426;SDS011;8322;-33.900;151.170;2023-06-14T09:01:18;3.15;;;1.80;;
16426;SDS011;8322;-33.900;151.170;2023-06-14T09:03:50;3.55;;;1.45;;
16426;SDS011;8322;-33.900;151.170;2023-06-14T09:06:20;3.53;;;1.60;;
16426;SDS011;8322;-33.900;151.170;2023-06-14T09:08:50;3.63;;;1.80;;
16426;SDS011;8322;-33.900;151.170;2023-06-14T09:11:20;3.97;;;1.90;;
16426;SDS011;8322;-33.900;151.170;2023-06-14T09:13:51;3.30;;;1.92;;
16426;SDS011;8322;-33.900;151.170;2023-06-14T09:16:21;4.80;;;2.00;;
16426;SDS011;8322;-33.900;151.170;2023-06-14T09:18:50;2.50;;;1.58;;
16426;SDS011;8322;-33.900;151.170;2023-06-14T09:21:20;4.70;;;3.30;;
16426;SDS011;8322;-33.900;151.170;2023-06-14T09:23:49;4.72;;;2.83;;
16426;SDS011;8322;-33.900;151.170;2023-06-14T09:26:19;3.33;;;1.92;;
16426;SDS011;8322;-33.900;151.170;2023-06-14T09:28:49;5.60;;;2.22;;
16426;SDS011;8322;-33.900;151.170;2023-06-14T09:31:21;5.18;;;1.92;;
16426;SDS011;8322;-33.900;151.170;2023-06-14T09:33:50;3.88;;;1.58;;
16426;SDS011;8322;-33.900;151.170;2023-06-14T09:36:21;2.85;;;1.40;;
16426;SDS011;8322;-33.900;151.170;2023-06-14T09:38:54;2.22;;;1.65;;
16426;SDS011;8322;-33.900;151.170;2023-06-14T09:41:30;2.58;;;1.23;;
16426;SDS011;8322;-33.900;151.170;2023-06-14T09:44:00;4.10;;;1.70;;
16426;SDS011;8322;-33.900;151.170;2023-06-14T09:46:32;4.38;;;2.10;;
16426;SDS011;8322;-33.900;151.170;2023-06-14T09:49:02;6.63;;;1.95;;
16426;SDS011;8322;-33.900;151.170;2023-06-14T09:51:31;2.55;;;1.60;;
16426;SDS011;8322;-33.900;151.170;2023-06-14T09:54:01;3.03;;;1.27;;
16426;SDS011;8322;-33.900;151.170;2023-06-14T09:56:32;3.05;;;1.17;;
16426;SDS011;8322;-33.900;151.170;2023-06-14T09:59:04;2.25;;;1.00;;
16426;SDS011;8322;-33.900;151.170;2023-06-14T10:01:39;2.50;;;1.45;;
16426;SDS011;8322;-33.900;151.170;2023-06-14T10:04:09;2.75;;;1.80;;
16426;SDS011;8322;-33.900;151.170;2023-06-14T10:06:40;2.92;;;1.73;;
16426;SDS011;8322;-33.900;151.170;2023-06-14T10:09:10;3.92;;;1.55;;
16426;SDS011;8322;-33.900;151.170;2023-06-14T10:11:40;2.15;;;1.40;;
16426;SDS011;8322;-33.900;151.170;2023-06-14T10:14:11;2.40;;;1.55;;
16426;SDS011;8322;-33.900;151.170;2023-06-14T10:16:45;2.88;;;1.50;;
16426;SDS011;8322;-33.900;151.170;2023-06-14T10:19:18;3.97;;;1.65;;
16426;SDS011;8322;-33.900;151.170;2023-06-14T10:21:51;3.55;;;1.40;;
16426;SDS011;8322;-33.900;151.170;2023-06-14T10:24:26;4.45;;;1.55;;
16426;SDS011;8322;-33.900;151.170;2023-06-14T10:26:58;3.72;;;1.70;;
16426;SDS011;8322;-33.900;151.170;2023-06-14T10:29:27;3.88;;;1.80;;
16426;SDS011;8322;-33.900;151.170;2023-06-14T10:32:00;2.13;;;1.60;;
16426;SDS011;8322;-33.900;151.170;2023-06-14T10:34:32;3.25;;;1.40;;
16426;SDS011;8322;-33.900;151.170;2023-06-14T10:37:03;3.90;;;1.50;;
16426;SDS011;8322;-33.900;151.170;2023-06-14T10:39:33;3.17;;;1.70;;
16426;SDS011;8322;-33.900;151.170;2023-06-14T10:42:05;1.77;;;1.30;;
16426;SDS011;8322;-33.900;151.170;2023-06-14T10:44:41;4.85;;;2.15;;
16426;SDS011;8322;-33.900;151.170;2023-06-14T10:47:19;2.42;;;1.80;;
16426;SDS011;8322;-33.900;151.170;2023-06-14T10:49:50;3.25;;;1.50;;
16426;SDS011;8322;-33.900;151.170;2023-06-14T10:52:24;2.08;;;1.40;;
16426;SDS011;8322;-33.900;151.170;2023-06-14T10:57:47;4.10;;;1.77;;
16426;SDS011;8322;-33.900;151.170;2023-06-14T11:00:18;5.95;;;2.42;;
16426;SDS011;8322;-33.900;151.170;2023-06-14T11:05:48;3.80;;;1.60;;
16426;SDS011;8322;-33.900;151.170;2023-06-14T11:08:23;1.85;;;1.38;;
16426;SDS011;8322;-33.900;151.170;2023-06-14T11:10:56;2.97;;;1.38;;
16426;SDS011;8322;-33.900;151.170;2023-06-14T11:13:30;4.85;;;1.50;;
16426;SDS011;8322;-33.900;151.170;2023-06-14T11:16:00;4.35;;;1.58;;
16426;SDS011;8322;-33.900;151.170;2023-06-14T11:18:29;3.42;;;1.52;;
16426;SDS011;8322;-33.900;151.170;2023-06-14T11:21:01;5.13;;;1.73;;
16426;SDS011;8322;-33.900;151.170;2023-06-14T11:23:30;3.35;;;1.50;;
16426;SDS011;8322;-33.900;151.170;2023-06-14T11:26:00;1.85;;;1.30;;
16426;SDS011;8322;-33.900;151.170;2023-06-14T11:28:37;4.10;;;1.38;;
16426;SDS011;8322;-33.900;151.170;2023-06-14T11:31:06;3.17;;;1.65;;
16426;SDS011;8322;-33.900;151.170;2023-06-14T11:33:37;4.32;;;1.48;;
16426;SDS011;8322;-33.900;151.170;2023-06-14T11:36:08;4.30;;;1.67;;
16426;SDS011;8322;-33.900;151.170;2023-06-14T11:38:37;2.78;;;1.20;;
16426;SDS011;8322;-33.900;151.170;2023-06-14T11:41:07;3.42;;;1.13;;
16426;SDS011;8322;-33.900;151.170;2023-06-14T11:43:36;2.33;;;1.33;;
16426;SDS011;8322;-33.900;151.170;2023-06-14T11:46:12;2.25;;;1.23;;
16426;SDS011;8322;-33.900;151.170;2023-06-14T11:48:43;4.57;;;1.40;;
16426;SDS011;8322;-33.900;151.170;2023-06-14T11:51:15;1.67;;;1.20;;
16426;SDS011;8322;-33.900;151.170;2023-06-14T11:53:44;2.17;;;1.30;;
16426;SDS011;8322;-33.900;151.170;2023-06-14T11:56:14;2.22;;;1.20;;
16426;SDS011;8322;-33.900;151.170;2023-06-14T11:58:44;3.70;;;1.45;;
16426;SDS011;8322;-33.900;151.170;2023-06-14T12:01:15;4.45;;;1.42;;
16426;SDS011;8322;-33.900;151.170;2023-06-14T12:03:48;4.55;;;1.23;;
16426;SDS011;8322;-33.900;151.170;2023-06-14T12:06:27;2.10;;;1.17;;
16426;SDS011;8322;-33.900;151.170;2023-06-14T12:08:58;2.55;;;1.30;;
16426;SDS011;8322;-33.900;151.170;2023-06-14T12:11:32;3.08;;;1.20;;
16426;SDS011;8322;-33.900;151.170;2023-06-14T12:14:03;2.80;;;1.48;;
16426;SDS011;8322;-33.900;151.170;2023-06-14T12:16:32;3.08;;;1.20;;
16426;SDS011;8322;-33.900;151.170;2023-06-14T12:19:11;3.70;;;1.20;;
16426;SDS011;8322;-33.900;151.170;2023-06-14T12:21:42;3.20;;;1.42;;
16426;SDS011;8322;-33.900;151.170;2023-06-14T12:24:13;1.83;;;1.00;;
16426;SDS011;8322;-33.900;151.170;2023-06-14T12:26:42;3.25;;;0.95;;
16426;SDS011;8322;-33.900;151.170;2023-06-14T12:29:12;2.05;;;1.23;;
16426;SDS011;8322;-33.900;151.170;2023-06-14T12:31:44;3.08;;;1.17;;
16426;SDS011;8322;-33.900;151.170;2023-06-14T12:34:14;4.80;;;1.10;;
16426;SDS011;8322;-33.900;151.170;2023-06-14T12:36:45;2.42;;;1.00;;
16426;SDS011;8322;-33.900;151.170;2023-06-14T12:39:15;2.70;;;1.17;;
16426;SDS011;8322;-33.900;151.170;2023-06-14T12:41:44;3.20;;;1.10;;
16426;SDS011;8322;-33.900;151.170;2023-06-14T12:44:14;5.30;;;1.42;;
16426;SDS011;8322;-33.900;151.170;2023-06-14T12:46:44;2.60;;;1.00;;
16426;SDS011;8322;-33.900;151.170;2023-06-14T12:49:13;2.72;;;1.10;;
16426;SDS011;8322;-33.900;151.170;2023-06-14T12:51:43;2.83;;;1.00;;
16426;SDS011;8322;-33.900;151.170;2023-06-14T12:54:14;2.85;;;0.90;;
16426;SDS011;8322;-33.900;151.170;2023-06-14T12:56:43;4.63;;;1.10;;
16426;SDS011;8322;-33.900;151.170;2023-06-14T12:59:13;2.83;;;0.93;;
16426;SDS011;8322;-33.900;151.170;2023-06-14T13:01:42;3.45;;;1.05;;
16426;SDS011;8322;-33.900;151.170;2023-06-14T13:04:15;2.65;;;1.00;;
16426;SDS011;8322;-33.900;151.170;2023-06-14T13:06:45;2.00;;;1.10;;
16426;SDS011;8322;-33.900;151.170;2023-06-14T13:09:16;1.55;;;1.00;;
16426;SDS011;8322;-33.900;151.170;2023-06-14T13:11:45;2.28;;;0.90;;
16426;SDS011;8322;-33.900;151.170;2023-06-14T13:14:15;5.13;;;1.20;;
16426;SDS011;8322;-33.900;151.170;2023-06-14T13:16:47;2.85;;;1.20;;
16426;SDS011;8322;-33.900;151.170;2023-06-14T13:19:17;3.55;;;1.10;;
16426;SDS011;8322;-33.900;151.170;2023-06-14T13:21:46;3.42;;;0.93;;
16426;SDS011;8322;-33.900;151.170;2023-06-14T13:24:17;3.25;;;1.90;;
16426;SDS011;8322;-33.900;151.170;2023-06-14T13:26:47;2.47;;;1.35;;
16426;SDS011;8322;-33.900;151.170;2023-06-14T13:29:16;4.05;;;1.00;;
16426;SDS011;8322;-33.900;151.170;2023-06-14T13:31:46;1.75;;;1.20;;
16426;SDS011;8322;-33.900;151.170;2023-06-14T13:34:15;3.25;;;1.00;;
16426;SDS011;8322;-33.900;151.170;2023-06-14T13:36:45;2.53;;;1.00;;
16426;SDS011;8322;-33.900;151.170;2023-06-14T13:39:15;3.40;;;1.17;;
16426;SDS011;8322;-33.900;151.170;2023-06-14T13:41:46;2.85;;;1.10;;
16426;SDS011;8322;-33.900;151.170;2023-06-14T13:44:16;3.22;;;1.00;;
16426;SDS011;8322;-33.900;151.170;2023-06-14T13:46:47;2.95;;;0.95;;
16426;SDS011;8322;-33.900;151.170;2023-06-14T13:49:16;2.50;;;1.10;;
16426;SDS011;8322;-33.900;151.170;2023-06-14T13:51:46;2.38;;;1.20;;
16426;SDS011;8322;-33.900;151.170;2023-06-14T13:54:17;2.85;;;1.10;;
16426;SDS011;8322;-33.900;151.170;2023-06-14T13:56:50;2.40;;;1.10;;
16426;SDS011;8322;-33.900;151.170;2023-06-14T13:59:19;1.42;;;0.95;;
16426;SDS011;8322;-33.900;151.170;2023-06-14T14:01:49;3.60;;;1.38;;
16426;SDS011;8322;-33.900;151.170;2023-06-14T14:04:18;3.10;;;1.20;;
16426;SDS011;8322;-33.900;151.170;2023-06-14T14:06:48;3.55;;;1.27;;
16426;SDS011;8322;-33.900;151.170;2023-06-14T14:09:17;4.63;;;1.80;;
16426;SDS011;8322;-33.900;151.170;2023-06-14T14:11:51;3.85;;;1.63;;
16426;SDS011;8322;-33.900;151.170;2023-06-14T14:14:21;2.83;;;1.00;;
16426;SDS011;8322;-33.900;151.170;2023-06-14T14:16:51;2.05;;;1.10;;
16426;SDS011;8322;-33.900;151.170;2023-06-14T14:19:21;2.20;;;1.33;;
16426;SDS011;8322;-33.900;151.170;2023-06-14T14:21:50;4.80;;;1.23;;
16426;SDS011;8322;-33.900;151.170;2023-06-14T14:24:20;3.65;;;1.77;;
16426;SDS011;8322;-33.900;151.170;2023-06-14T14:26:51;4.05;;;1.60;;
16426;SDS011;8322;-33.900;151.170;2023-06-14T14:29:21;2.85;;;0.93;;
16426;SDS011;8322;-33.900;151.170;2023-06-14T14:31:51;1.60;;;1.20;;
16426;SDS011;8322;-33.900;151.170;2023-06-14T14:34:20;2.83;;;1.10;;
16426;SDS011;8322;-33.900;151.170;2023-06-14T14:36:50;2.65;;;1.08;;
16426;SDS011;8322;-33.900;151.170;2023-06-14T14:39:19;4.68;;;1.10;;
16426;SDS011;8322;-33.900;151.170;2023-06-14T14:41:51;2.90;;;1.10;;
16426;SDS011;8322;-33.900;151.170;2023-06-14T14:44:21;4.05;;;1.05;;
16426;SDS011;8322;-33.900;151.170;2023-06-14T14:46:50;2.42;;;1.10;;